< < Back
Terminal Aerodrome Forecast


Current Version              Previous Versions:   1  2  3  4  5  6  7  8  9  

Terminal Aerodrome Forecast

097
FTUS42 KJAX 251900 AAA
TAFJAX
TAF AMD
KJAX 251930Z 2520/2618 05008KT 4SM RA BKN020
     FM252100 03006KT 2SM RA BR SCT004 OVC008
     FM252300 03007KT 1SM +RA BR VCTS OVC004CB
     FM260300 36010KT 2SM RA BR SCT002 OVC005
     FM260900 31016G28KT 5SM SHRA SCT005 OVC010
     FM261300 32012KT 6SM -SHRA SCT010 BKN050=



Latest METAR

949
SAUS80 KWBC 252300
MTRJAX
METAR KJAX 252256Z 01009KT 4SM RA BR BKN006 OVC012 17/17 A2993 RMK AO2
TSB05E38 SLP137 P0022 T01670167


USA.gov is the U.S. government's official web portal to all federal, state and local government web resources and services.